Time;durP1;ratioP1;P1;durP2;ratioP2;P2;SDS_P1;SDS_P2;PMS_P1;PMS_P2;Temp;Humidity;BMP_temperature;BMP_pressure;BME280_temperature;BME280_humidity;BME280_pressure;Samples;Min_cycle;Max_cycle;Signal;HPM_P1;HPM_P2
2023/09/17 00:03:12;;;;;;;27.83;22.90;;;;;;;17.02;69.00;101046.91;15804768;28;20415;-50
2023/09/17 00:10:46;;;;;;;;;;;;;;;16.93;69.58;101051.94;15805219;28;20140;-50
2023/09/17 00:18:25;;;;;;;20.85;16.50;;;;;;;16.95;68.92;101054.38;15744326;28;19920;-49
2023/09/17 00:26:00;;;;;;;19.27;15.65;;;;;;;16.79;69.67;101051.41;15741221;28;20040;-53
2023/09/17 00:33:38;;;;;;;21.15;17.15;;;;;;;16.87;68.79;101054.78;15741637;28;20055;-50
2023/09/17 00:41:13;;;;;;;21.27;16.70;;;;;;;16.59;69.74;101053.69;15776999;28;20121;-51
2023/09/17 00:48:50;;;;;;;28.30;19.67;;;;;;;16.65;69.56;101051.94;15737393;28;20072;-49
2023/09/17 00:56:26;;;;;;;;;;;;;;;16.37;69.69;101050.84;15754800;28;20649;-52
2023/09/17 01:04:00;;;;;;;23.42;16.88;;;;;;;16.47;69.95;101048.34;15783483;28;20369;-46
2023/09/17 01:11:40;;;;;;;19.17;16.25;;;;;;;16.47;69.82;101044.81;15764098;28;20040;-46
2023/09/17 01:19:20;;;;;;;17.58;15.70;;;;;;;16.46;69.27;101048.56;15800583;28;20047;-48
2023/09/17 01:27:02;;;;;;;18.02;16.05;;;;;;;16.16;69.99;101048.78;15765564;28;20040;-49
2023/09/17 01:34:38;;;;;;;19.53;16.30;;;;;;;16.08;69.92;101033.72;15799269;28;20047;-48
2023/09/17 01:42:14;;;;;;;21.35;16.17;;;;;;;16.10;69.87;101042.44;15799604;28;20036;-54
2023/09/17 01:49:51;;;;;;;20.75;17.27;;;;;;;16.13;69.68;101051.97;15722511;28;20076;-51
2023/09/17 01:57:26;;;;;;;20.75;17.17;;;;;;;16.03;70.19;101061.53;15709518;28;20060;-49
2023/09/17 02:05:00;;;;;;;20.25;16.45;;;;;;;15.88;70.18;101058.50;15713400;28;20048;-54
2023/09/17 02:12:35;;;;;;;20.52;16.30;;;;;;;16.07;68.90;101056.47;15721347;28;20046;-48
2023/09/17 02:20:13;;;;;;;19.60;16.38;;;;;;;15.74;70.33;101048.97;15779307;28;20032;-47
2023/09/17 02:27:47;;;;;;;19.02;16.67;;;;;;;15.79;70.24;101055.31;15778588;28;20048;-49
2023/09/17 02:35:21;;;;;;;23.02;16.95;;;;;;;15.67;69.89;101057.25;15791079;22;20044;-47
2023/09/17 02:42:55;;;;;;;20.17;16.20;;;;;;;15.67;70.45;101048.31;15786395;28;20158;-47
2023/09/17 02:50:33;;;;;;;21.08;16.35;;;;;;;15.51;70.54;101049.78;15817068;28;20051;-49
2023/09/17 02:58:10;;;;;;;19.25;16.15;;;;;;;15.46;70.51;101045.06;15767931;28;20055;-48
2023/09/17 03:05:45;;;;;;;21.63;17.42;;;;;;;15.66;69.75;101035.81;15766402;28;20131;-48
2023/09/17 03:13:22;;;;;;;19.38;16.45;;;;;;;15.38;70.70;101041.91;15800577;28;20051;-46
2023/09/17 03:20:59;;;;;;;20.45;16.52;;;;;;;15.21;71.27;101050.72;15873935;28;20458;-47
2023/09/17 03:28:37;;;;;;;20.23;16.20;;;;;;;15.28;70.50;101064.94;15858399;28;20081;-47
2023/09/17 03:36:12;;;;;;;21.20;16.48;;;;;;;14.97;71.49;101057.13;15857136;28;20035;-47
2023/09/17 03:43:50;;;;;;;22.50;15.63;;;;;;;15.09;70.68;101055.25;15857094;28;20055;-46
2023/09/17 03:51:23;;;;;;;22.80;16.13;;;;;;;15.03;70.68;101056.22;15856666;28;20043;-47
2023/09/17 03:58:58;;;;;;;21.23;16.10;;;;;;;14.94;71.18;101063.81;15855718;28;20039;-47
2023/09/17 04:06:33;;;;;;;19.42;16.50;;;;;;;14.37;72.86;101063.34;15856105;28;20036;-46
2023/09/17 04:14:08;;;;;;;17.90;14.85;;;;;;;14.57;71.58;101073.09;15814899;28;20075;-48
2023/09/17 04:21:41;;;;;;;18.55;14.77;;;;;;;14.65;70.59;101084.41;15791744;28;20032;-48
2023/09/17 04:29:16;;;;;;;20.30;16.13;;;;;;;14.59;71.14;101088.00;15832197;28;20058;-47
2023/09/17 04:36:51;;;;;;;17.15;14.82;;;;;;;14.84;70.20;101087.88;15854305;28;20035;-46
2023/09/17 04:44:29;;;;;;;19.95;14.65;;;;;;;14.65;70.75;101092.50;15857132;28;20507;-51
2023/09/17 04:52:04;;;;;;;14.15;12.65;;;;;;;14.72;70.52;101087.81;15853047;28;20036;-48
2023/09/17 04:59:39;;;;;;;15.88;13.70;;;;;;;14.56;71.62;101085.78;15852293;28;20074;-51
2023/09/17 05:07:14;;;;;;;26.75;17.70;;;;;;;14.90;70.49;101086.13;15852218;28;20424;-51
2023/09/17 05:14:49;;;;;;;20.75;16.77;;;;;;;14.95;70.68;101088.97;15838659;28;20123;-48
2023/09/17 05:22:22;;;;;;;21.65;17.23;;;;;;;15.00;70.76;101102.63;15834841;28;20066;-48
2023/09/17 05:29:57;;;;;;;;;;;;;;;15.27;70.19;101095.75;15851998;28;20112;-47
2023/09/17 05:37:30;;;;;;;24.85;19.90;;;;;;;15.39;70.33;101114.72;15850293;28;20368;-49
2023/09/17 05:45:08;;;;;;;21.30;17.67;;;;;;;15.73;69.97;101121.25;15849868;28;20126;-50
2023/09/17 05:52:42;;;;;;;21.75;17.35;;;;;;;15.67;70.44;101135.72;15849711;28;20042;-56
2023/09/17 06:00:17;;;;;;;;;;;;;;;15.55;71.29;101149.19;15850089;28;20047;-48
2023/09/17 06:07:52;;;;;;;16.60;14.63;;;;;;;15.28;72.44;101150.66;15866423;28;20399;-48
2023/09/17 06:15:26;;;;;;;;;;;;;;;14.87;74.26;101146.03;15805537;28;20074;-51
2023/09/17 06:23:00;;;;;;;17.30;15.48;;;;;;;15.13;76.16;101161.09;15785019;28;19920;-48
2023/09/17 06:30:34;;;;;;;19.67;16.20;;;;;;;15.62;74.29;101156.34;15819917;28;20063;-48
2023/09/17 06:38:07;;;;;;;19.75;16.08;;;;;;;15.64;74.99;101160.53;15864713;28;20038;-48
2023/09/17 06:45:42;;;;;;;19.00;15.88;;;;;;;16.73;72.27;101177.06;15865483;28;20044;-50
2023/09/17 06:53:15;;;;;;;20.33;16.23;;;;;;;17.27;70.74;101176.75;15856639;27;20047;-51
2023/09/17 07:00:50;;;;;;;22.20;17.05;;;;;;;17.24;70.96;101177.22;15885547;28;20070;-50
2023/09/17 07:08:23;;;;;;;17.80;15.73;;;;;;;17.70;71.25;101167.97;15877696;27;20047;-51
2023/09/17 07:15:57;;;;;;;17.35;14.85;;;;;;;19.08;67.79;101169.88;15846159;28;20039;-49
2023/09/17 07:23:30;;;;;;;17.02;14.80;;;;;;;19.43;66.29;101176.72;15821635;28;20055;-51
2023/09/17 07:31:10;;;;;;;15.57;13.98;;;;;;;20.14;65.62;101180.00;15821513;28;20047;-47
2023/09/17 07:38:43;;;;;;;16.25;13.57;;;;;;;20.24;64.29;101184.72;15820810;28;20047;-54
2023/09/17 07:46:18;;;;;;;15.02;12.23;;;;;;;21.04;61.88;101180.72;15821241;28;20048;-49
2023/09/17 07:53:51;;;;;;;13.88;11.68;;;;;;;21.47;61.41;101181.34;15821391;28;20089;-50
2023/09/17 08:01:25;;;;;;;15.70;11.75;;;;;;;22.05;59.23;101172.84;15794211;28;20048;-53
2023/09/17 08:08:58;;;;;;;13.82;12.20;;;;;;;22.52;58.81;101177.09;15810670;28;20044;-52
2023/09/17 08:16:32;;;;;;;13.10;11.63;;;;;;;23.09;56.83;101178.53;15829268;28;20549;-50
2023/09/17 08:24:06;;;;;;;12.73;10.55;;;;;;;22.74;58.37;101174.81;15824730;28;20450;-49
2023/09/17 08:31:40;;;;;;;14.50;10.35;;;;;;;23.93;54.77;101187.47;15809665;28;20488;-54
2023/09/17 08:39:14;;;;;;;13.20;9.95;;;;;;;24.24;53.57;101178.91;15789848;28;20518;-48
2023/09/17 08:46:52;;;;;;;13.60;9.25;;;;;;;25.04;51.21;101180.94;15816390;28;20043;-45
2023/09/17 08:54:36;;;;;;;13.20;10.15;;;;;;;25.23;50.68;101184.56;15836856;28;20047;-50
2023/09/17 09:02:18;;;;;;;10.88;9.40;;;;;;;25.00;51.85;101180.75;15822162;28;20472;-46
2023/09/17 09:09:52;;;;;;;10.27;8.73;;;;;;;25.18;51.60;101182.72;15834248;28;20088;-46
2023/09/17 09:17:28;;;;;;;9.10;8.20;;;;;;;25.08;49.31;101176.53;15808658;28;20547;-50
2023/09/17 09:25:04;;;;;;;30.40;17.10;;;;;;;25.68;48.24;101177.50;15827580;28;20047;-45
2023/09/17 09:32:39;;;;;;;9.40;7.72;;;;;;;26.33;48.37;101167.53;15831961;28;20194;-47
2023/09/17 09:40:14;;;;;;;8.65;6.82;;;;;;;27.06;46.46;101161.03;15858576;28;20046;-53
2023/09/17 09:47:50;;;;;;;9.02;6.45;;;;;;;27.61;44.64;101166.34;15849171;28;20042;-45
2023/09/17 09:55:25;;;;;;;6.85;5.72;;;;;;;27.49;43.69;101157.00;15868009;28;20114;-48
2023/09/17 10:03:01;;;;;;;7.97;5.93;;;;;;;27.68;42.36;101149.34;15867243;28;20482;-49
2023/09/17 10:10:36;;;;;;;5.45;4.63;;;;;;;28.50;40.18;101149.91;15844811;28;20059;-48
2023/09/17 10:18:14;;;;;;;5.30;3.58;;;;;;;29.07;35.23;101147.09;15807135;28;20435;-46
2023/09/17 10:25:49;;;;;;;6.70;3.40;;;;;;;28.31;37.03;101141.88;15846345;28;20044;-46
2023/09/17 10:33:26;;;;;;;90.57;7.70;;;;;;;29.43;38.78;101142.03;15797647;28;20044;-48
2023/09/17 10:41:01;;;;;;;6.82;4.78;;;;;;;29.81;37.22;101144.06;15799887;28;20134;-48
2023/09/17 10:48:40;;;;;;;7.50;4.63;;;;;;;30.02;36.79;101146.09;15807052;28;20050;-48
2023/09/17 10:56:15;;;;;;;6.85;4.75;;;;;;;30.66;38.38;101134.88;15818374;28;20059;-55
2023/09/17 11:03:55;;;;;;;5.05;4.55;;;;;;;30.54;36.64;101132.00;15838932;28;20051;-49
2023/09/17 11:11:30;;;;;;;4.95;4.45;;;;;;;31.40;34.40;101136.91;15855363;28;20127;-50
2023/09/17 11:19:09;;;;;;;6.65;4.90;;;;;;;30.72;36.02;101144.63;15814407;28;20044;-46
2023/09/17 11:26:45;;;;;;;5.25;4.22;;;;;;;31.79;35.58;101137.47;15811730;28;20066;-46
2023/09/17 11:34:22;;;;;;;11.00;4.55;;;;;;;30.87;36.33;101135.72;15841370;28;20415;-48
2023/09/17 11:42:03;;;;;;;34.03;27.90;;;;;;;30.94;36.34;101124.91;15845647;28;20050;-49
2023/09/17 11:49:39;;;;;;;5.53;4.20;;;;;;;30.60;35.54;101136.22;15839123;28;20044;-48
2023/09/17 11:57:12;;;;;;;8.07;4.15;;;;;;;30.98;35.53;101136.94;15838646;28;20040;-48
2023/09/17 12:04:51;;;;;;;7.07;4.35;;;;;;;31.57;33.47;101127.59;15851284;28;20440;-50
2023/09/17 12:12:25;;;;;;;6.05;4.05;;;;;;;31.03;35.35;101127.59;15855827;28;20472;-48
2023/09/17 12:20:12;;;;;;;4.63;3.92;;;;;;;31.59;34.50;101125.28;15849316;28;20043;-54
2023/09/17 12:27:48;;;;;;;9.77;4.22;;;;;;;31.02;35.07;101131.53;15860288;28;20450;-47
2023/09/17 12:35:23;;;;;;;5.22;4.60;;;;;;;29.67;37.28;101132.41;15851632;28;20078;-45
2023/09/17 12:42:57;;;;;;;4.32;3.80;;;;;;;28.77;37.38;101129.47;15850342;28;20042;-48
2023/09/17 12:50:32;;;;;;;5.18;4.13;;;;;;;29.02;37.65;101119.63;15836184;28;20685;-47
2023/09/17 12:58:07;;;;;;;4.50;4.10;;;;;;;29.14;37.25;101123.31;15830221;28;20171;-57
2023/09/17 13:05:43;;;;;;;7.43;4.20;;;;;;;29.72;36.93;101115.63;15778699;28;20068;-46
2023/09/17 13:13:16;;;;;;;4.03;3.72;;;;;;;30.04;34.86;101111.41;15782055;28;20090;-50
2023/09/17 13:20:50;;;;;;;6.15;4.53;;;;;;;30.50;35.49;101098.66;15787710;28;20051;-49
2023/09/17 13:28:23;;;;;;;3.90;3.10;;;;;;;30.61;33.78;101090.75;15768322;28;20109;-45
2023/09/17 13:35:59;;;;;;;5.57;3.70;;;;;;;31.62;32.72;101084.94;15782301;28;20447;-48
2023/09/17 13:43:31;;;;;;;4.35;3.65;;;;;;;31.16;33.15;101079.38;15777873;28;20070;-49
2023/09/17 13:51:10;;;;;;;4.93;3.38;;;;;;;30.65;34.87;101086.16;15766330;28;20090;-49
2023/09/17 13:58:43;;;;;;;6.72;3.38;;;;;;;29.39;35.87;101084.94;15775242;28;20102;-52
2023/09/17 14:06:17;;;;;;;4.28;3.28;;;;;;;28.15;37.79;101076.03;15779916;28;20476;-56
2023/09/17 14:13:51;;;;;;;4.60;3.85;;;;;;;28.20;37.86;101083.38;15761159;28;20226;-52
2023/09/17 14:21:30;;;;;;;4.55;3.50;;;;;;;28.77;36.59;101068.69;15774227;28;20102;-51
2023/09/17 14:29:03;;;;;;;5.53;3.60;;;;;;;28.91;37.35;101066.56;15751331;28;20446;-49
2023/09/17 14:36:38;;;;;;;5.80;3.25;;;;;;;29.06;37.46;101070.84;15756554;28;20090;-46
2023/09/17 14:44:11;;;;;;;4.38;3.60;;;;;;;29.03;36.94;101065.94;15777675;28;20055;-52
2023/09/17 14:51:48;;;;;;;5.65;3.33;;;;;;;28.33;38.24;101070.56;15786098;28;20048;-48
2023/09/17 14:59:21;;;;;;;4.28;3.55;;;;;;;28.25;37.29;101061.13;15782787;28;20094;-50
2023/09/17 15:06:55;;;;;;;5.18;3.70;;;;;;;28.23;37.62;101055.94;15753585;28;20056;-51
2023/09/17 15:14:29;;;;;;;3.65;2.80;;;;;;;27.79;38.48;101053.38;15745701;28;20044;-49
2023/09/17 15:22:04;;;;;;;3.80;3.10;;;;;;;27.92;37.03;101061.53;15730577;28;20041;-47
2023/09/17 15:29:37;;;;;;;4.15;3.30;;;;;;;27.84;38.00;101055.97;15742331;28;20044;-49
2023/09/17 15:37:12;;;;;;;4.03;3.33;;;;;;;27.68;37.48;101050.06;15773974;28;20033;-48
2023/09/17 15:44:45;;;;;;;4.25;3.20;;;;;;;27.92;38.14;101063.47;15755756;28;20566;-50
2023/09/17 15:52:20;;;;;;;5.82;3.33;;;;;;;27.74;38.33;101053.50;15770825;28;20070;-48
2023/09/17 15:59:53;;;;;;;4.10;2.97;;;;;;;28.00;38.17;101053.63;15806097;28;20094;-49
2023/09/17 16:07:27;;;;;;;3.70;3.10;;;;;;;27.16;38.30;101058.03;15757801;28;20036;-45
2023/09/17 16:15:02;;;;;;;3.63;3.00;;;;;;;27.84;37.41;101061.50;15778541;28;20043;-44
2023/09/17 16:22:37;;;;;;;3.63;3.10;;;;;;;27.73;40.22;101052.69;15757005;28;20056;-47
2023/09/17 16:30:12;;;;;;;3.95;3.20;;;;;;;27.28;41.85;101050.03;15798245;28;20061;-46
2023/09/17 16:37:47;;;;;;;5.82;3.03;;;;;;;26.94;41.98;101048.63;15752392;28;20063;-52
2023/09/17 16:45:20;;;;;;;5.40;3.22;;;;;;;26.52;43.69;101035.31;15776743;28;20040;-45
2023/09/17 16:52:54;;;;;;;4.35;3.05;;;;;;;26.52;43.88;101021.53;15750822;28;20047;-47
2023/09/17 17:00:27;;;;;;;4.95;3.67;;;;;;;26.15;44.76;101028.94;15778115;28;20051;-47
2023/09/17 17:08:01;;;;;;;3.50;3.20;;;;;;;25.88;43.20;101049.84;15781847;28;20549;-46
2023/09/17 17:15:35;;;;;;;4.90;3.08;;;;;;;26.12;42.98;101038.63;15784028;28;20480;-50
2023/09/17 17:23:09;;;;;;;5.30;3.22;;;;;;;25.85;45.17;101044.16;15758043;28;20043;-48
2023/09/17 17:30:42;;;;;;;4.93;3.42;;;;;;;25.36;45.93;101035.38;15789577;28;20056;-44
2023/09/17 17:38:17;;;;;;;5.57;4.15;;;;;;;25.02;45.02;101041.19;15779638;28;20044;-46
2023/09/17 17:45:50;;;;;;;4.57;3.80;;;;;;;24.78;45.63;101040.47;15790232;28;20044;-47
2023/09/17 17:53:25;;;;;;;15.70;10.50;;;;;;;24.96;45.56;101041.56;15797384;28;20044;-50
2023/09/17 18:00:58;;;;;;;6.90;3.92;;;;;;;24.89;45.75;101037.25;15775581;28;20044;-48
2023/09/17 18:08:32;;;;;;;6.45;4.32;;;;;;;24.91;45.99;101029.56;15784773;28;20131;-50
2023/09/17 18:16:05;;;;;;;5.18;4.68;;;;;;;24.53;47.29;101036.16;15761934;28;20680;-45
2023/09/17 18:23:43;;;;;;;8.13;5.03;;;;;;;24.57;46.94;101040.75;15722033;28;20775;-44
2023/09/17 18:31:16;;;;;;;8.00;5.07;;;;;;;24.70;47.28;101033.72;15739513;28;20044;-45
2023/09/17 18:38:50;;;;;;;5.60;4.80;;;;;;;24.66;48.08;101032.69;15721176;28;20044;-52
2023/09/17 18:46:24;;;;;;;7.72;5.35;;;;;;;24.41;47.97;101031.94;15754700;28;20663;-46
2023/09/17 18:53:58;;;;;;;8.85;5.35;;;;;;;24.74;48.05;101029.28;15776246;28;20047;-49
2023/09/17 19:01:31;;;;;;;6.50;5.80;;;;;;;24.27;49.21;101031.00;15777083;28;20524;-44
2023/09/17 19:09:06;;;;;;;7.28;5.60;;;;;;;24.15;49.74;101031.47;15745870;28;20342;-44
2023/09/17 19:16:39;;;;;;;10.55;6.30;;;;;;;23.86;50.10;101022.47;15772458;28;20048;-45
2023/09/17 19:24:13;;;;;;;6.93;6.22;;;;;;;23.59;50.80;101010.13;15756362;28;20048;-59
2023/09/17 19:31:46;;;;;;;8.80;6.85;;;;;;;23.34;51.13;101013.16;15679029;28;20200;-51
2023/09/17 19:39:20;;;;;;;8.13;7.10;;;;;;;23.21;51.63;101011.09;15715627;28;20098;-46
2023/09/17 19:46:54;;;;;;;8.70;7.32;;;;;;;22.76;52.62;100996.66;15709762;28;20036;-45
2023/09/17 19:54:29;;;;;;;8.80;7.32;;;;;;;23.05;52.60;100991.25;15711603;28;20057;-49
2023/09/17 20:02:03;;;;;;;13.52;7.43;;;;;;;22.97;52.42;100980.91;15713337;28;20033;-43
2023/09/17 20:09:37;;;;;;;9.30;7.50;;;;;;;22.84;52.57;100977.69;15728266;28;20040;-45
2023/09/17 20:17:11;;;;;;;10.57;7.43;;;;;;;22.62;53.40;100982.81;15725880;28;20468;-45
2023/09/17 20:24:45;;;;;;;10.52;6.80;;;;;;;22.31;53.81;100977.53;15746035;28;20513;-48
2023/09/17 20:32:18;;;;;;;9.23;7.10;;;;;;;22.35;53.83;100975.88;15746345;28;20052;-52
2023/09/17 20:39:52;;;;;;;11.55;7.38;;;;;;;22.10;53.99;100965.03;15694169;22;20053;-47
2023/09/17 20:47:28;;;;;;;8.40;7.30;;;;;;;22.09;54.09;100963.41;15645625;28;20156;-46
2023/09/17 20:55:02;;;;;;;8.20;7.38;;;;;;;22.35;53.88;100961.38;15604935;28;20026;-49
2023/09/17 21:02:36;;;;;;;10.07;7.85;;;;;;;22.41;53.32;100966.53;15618585;28;20057;-52
2023/09/17 21:10:11;;;;;;;9.77;7.38;;;;;;;22.26;54.04;100958.44;15614828;28;20099;-52
2023/09/17 21:17:44;;;;;;;12.68;7.32;;;;;;;22.25;53.68;100954.06;15669187;28;20046;-52
2023/09/17 21:25:19;;;;;;;69.22;47.17;;;;;;;22.24;53.77;100951.59;15658802;28;20045;-55
2023/09/17 21:32:52;;;;;;;12.38;9.48;;;;;;;22.37;53.25;100942.75;15675539;28;20064;-51
2023/09/17 21:40:26;;;;;;;9.30;7.80;;;;;;;22.21;53.30;100942.06;15675440;28;20389;-49
2023/09/17 21:47:59;;;;;;;11.02;7.60;;;;;;;22.11;53.55;100931.16;15674265;28;20354;-50
2023/09/17 21:55:35;;;;;;;9.45;7.70;;;;;;;22.13;54.11;100932.53;15673010;28;20045;-52
2023/09/17 22:03:09;;;;;;;9.98;7.60;;;;;;;21.97;55.16;100921.94;15606951;28;20040;-51
2023/09/17 22:10:44;;;;;;;10.27;7.75;;;;;;;21.65;55.24;100915.81;15662547;28;20055;-48
2023/09/17 22:18:19;;;;;;;11.55;7.82;;;;;;;21.35;56.58;100908.53;15669036;28;20448;-50
2023/09/17 22:25:53;;;;;;;9.15;7.63;;;;;;;21.37;57.16;100902.81;15671118;28;20045;-53
2023/09/17 22:33:26;;;;;;;13.10;8.50;;;;;;;21.05;57.96;100897.69;15654131;28;20394;-48
2023/09/17 22:41:00;;;;;;;11.18;8.00;;;;;;;21.14;57.18;100906.94;15652850;28;20519;-48
2023/09/17 22:48:33;;;;;;;8.25;7.40;;;;;;;21.32;56.53;100903.66;15671244;28;20049;-50
2023/09/17 22:56:08;;;;;;;9.15;7.53;;;;;;;21.34;56.31;100904.16;15665349;28;20099;-50
2023/09/17 23:03:43;;;;;;;11.32;7.97;;;;;;;21.17;56.67;100894.63;15611034;28;20116;-53
2023/09/17 23:11:17;;;;;;;10.25;7.65;;;;;;;21.24;55.99;100893.25;15616800;28;20053;-54
2023/09/17 23:18:53;;;;;;;10.05;6.93;;;;;;;20.97;56.89;100881.84;15632091;28;20113;-54
2023/09/17 23:26:28;;;;;;;9.68;7.60;;;;;;;20.62;57.74;100872.63;15608606;28;20490;-55
2023/09/17 23:34:01;;;;;;;8.63;7.32;;;;;;;20.68;57.24;100882.44;15596904;28;20060;-49
2023/09/17 23:41:35;;;;;;;8.63;7.40;;;;;;;20.59;57.86;100859.53;15624456;28;20447;-51
2023/09/17 23:49:08;;;;;;;8.32;7.28;;;;;;;20.72;57.36;100850.00;15607277;28;20033;-54
2023/09/17 23:56:42;;;;;;;9.68;7.10;;;;;;;20.93;56.49;100837.09;15629218;28;20090;-50
